createdAt,value
2018-03-30T00:02:19.935Z,34.58
2018-03-30T00:04:47.577Z,29.37
2018-03-30T00:07:15.208Z,31.25
2018-03-30T00:10:00.664Z,28.90
2018-03-30T00:12:29.935Z,29.55
2018-03-30T00:14:58.107Z,33.40
2018-03-30T00:17:26.565Z,30.95
2018-03-30T00:19:54.242Z,31.58
2018-03-30T00:22:21.897Z,33.03
2018-03-30T00:24:49.543Z,31.70
2018-03-30T00:27:17.264Z,30.65
2018-03-30T00:29:44.883Z,32.67
2018-03-30T00:32:12.616Z,37.60
2018-03-30T00:34:40.308Z,32.88
2018-03-30T00:37:07.944Z,32.38
2018-03-30T00:39:35.647Z,34.28
2018-03-30T00:42:03.329Z,31.70
2018-03-30T00:44:30.953Z,37.08
2018-03-30T00:46:58.607Z,34.85
2018-03-30T00:49:26.279Z,33.83
2018-03-30T00:51:54.441Z,33.10
2018-03-30T00:54:22.045Z,35.10
2018-03-30T00:56:50.434Z,37.92
2018-03-30T00:59:18.786Z,34.92
2018-03-30T01:01:46.448Z,33.35
2018-03-30T01:04:14.090Z,33.83
2018-03-30T01:06:41.806Z,30.92
2018-03-30T01:09:09.477Z,29.08
2018-03-30T01:11:37.162Z,33.63
2018-03-30T01:14:04.829Z,30.67
2018-03-30T01:16:32.429Z,33.13
2018-03-30T01:19:00.055Z,28.45
2018-03-30T01:21:28.532Z,32.53
2018-03-30T01:23:56.901Z,34.25
2018-03-30T01:26:24.586Z,29.58
2018-03-30T01:28:52.261Z,29.75
2018-03-30T01:31:20.657Z,31.17
2018-03-30T01:33:48.254Z,30.62
2018-03-30T01:36:16.057Z,32.72
2018-03-30T01:38:43.677Z,34.85
2018-03-30T01:41:11.268Z,36.42
2018-03-30T01:43:38.875Z,32.83
2018-03-30T01:46:07.822Z,33.38
2018-03-30T01:48:35.475Z,31.10
2018-03-30T01:51:03.119Z,31.08
2018-03-30T01:53:30.737Z,33.53
2018-03-30T01:55:58.334Z,28.92
2018-03-30T01:58:26.714Z,31.80
2018-03-30T02:00:54.404Z,35.30
2018-03-30T02:03:22.132Z,30.30
2018-03-30T02:05:50.621Z,31.98
2018-03-30T02:08:19.031Z,27.25
2018-03-30T02:10:47.491Z,29.50
2018-03-30T02:13:15.965Z,24.40
2018-03-30T02:15:44.410Z,27.52
2018-03-30T02:18:12.076Z,26.12
2018-03-30T02:20:40.268Z,28.23
2018-03-30T02:23:08.659Z,30.30
2018-03-30T02:25:36.331Z,29.23
2018-03-30T02:28:04.568Z,24.95
2018-03-30T02:30:32.303Z,28.87
2018-03-30T02:32:59.917Z,29.00
2018-03-30T02:35:28.316Z,31.73
2018-03-30T02:37:55.951Z,29.85
2018-03-30T02:40:23.603Z,25.80
2018-03-30T02:42:51.265Z,26.35
2018-03-30T02:45:18.898Z,27.80
2018-03-30T02:47:46.562Z,35.03
2018-03-30T02:50:14.235Z,29.83
2018-03-30T02:52:43.143Z,27.52
2018-03-30T02:55:10.804Z,27.35
2018-03-30T02:57:39.285Z,30.80
2018-03-30T03:00:07.642Z,30.00
2018-03-30T03:02:35.327Z,27.02
2018-03-30T03:05:02.952Z,24.25
2018-03-30T03:07:30.550Z,30.90
2018-03-30T03:09:59.035Z,27.65
2018-03-30T03:12:26.647Z,24.08
2018-03-30T03:14:54.261Z,23.17
2018-03-30T03:17:21.887Z,29.00
2018-03-30T03:19:49.512Z,25.05
2018-03-30T03:22:18.022Z,25.73
2018-03-30T03:24:45.708Z,23.23
2018-03-30T03:27:13.356Z,22.95
2018-03-30T03:29:40.993Z,23.77
2018-03-30T03:32:08.597Z,22.48
2018-03-30T03:34:36.244Z,22.50
2018-03-30T03:37:03.889Z,30.40
2018-03-30T03:39:31.539Z,19.67
2018-03-30T03:41:59.217Z,20.60
2018-03-30T03:44:26.867Z,25.75
2018-03-30T03:46:54.550Z,24.02
2018-03-30T03:49:22.191Z,21.60
2018-03-30T03:51:49.788Z,24.98
2018-03-30T03:54:17.413Z,23.80
2018-03-30T03:56:45.016Z,23.77
2018-03-30T03:59:12.671Z,20.60
2018-03-30T04:01:40.348Z,20.83
2018-03-30T04:04:07.974Z,26.30
2018-03-30T04:06:35.589Z,26.95
2018-03-30T04:09:03.999Z,27.77
2018-03-30T04:11:31.593Z,20.12
2018-03-30T04:13:59.298Z,20.37
2018-03-30T04:16:27.750Z,25.30
2018-03-30T04:18:55.361Z,25.20
2018-03-30T04:21:23.130Z,25.27
2018-03-30T04:23:50.863Z,24.92
2018-03-30T04:26:18.488Z,23.12
2018-03-30T04:28:46.112Z,24.73
2018-03-30T04:31:13.746Z,19.75
2018-03-30T04:33:42.140Z,24.08
2018-03-30T04:36:09.766Z,21.02
2018-03-30T04:38:37.461Z,21.58
2018-03-30T04:41:05.839Z,23.27
2018-03-30T04:43:33.502Z,24.70
2018-03-30T04:46:01.133Z,17.95
2018-03-30T04:48:28.767Z,23.90
2018-03-30T04:50:56.385Z,22.17
2018-03-30T04:53:24.050Z,20.55
2018-03-30T04:55:51.761Z,19.23
2018-03-30T04:58:19.454Z,23.58
2018-03-30T05:00:47.034Z,18.35
2018-03-30T05:03:15.444Z,22.77
2018-03-30T05:05:43.043Z,23.45
2018-03-30T05:08:11.507Z,22.77
2018-03-30T05:10:39.133Z,16.20
2018-03-30T05:13:07.120Z,19.50
2018-03-30T05:15:34.745Z,20.73
2018-03-30T05:18:03.149Z,16.73
2018-03-30T05:20:30.861Z,19.80
2018-03-30T05:22:58.469Z,23.05
2018-03-30T05:25:26.140Z,18.77
2018-03-30T05:27:53.757Z,22.70
2018-03-30T05:30:22.481Z,20.60
2018-03-30T05:32:50.263Z,22.98
2018-03-30T05:35:17.861Z,17.33
2018-03-30T05:37:45.568Z,15.77
2018-03-30T05:40:13.200Z,21.17
2018-03-30T05:42:41.566Z,14.30
2018-03-30T05:45:09.234Z,18.75
2018-03-30T05:47:36.876Z,20.17
2018-03-30T05:50:04.567Z,15.45
2018-03-30T05:52:33.015Z,16.92
2018-03-30T05:55:00.663Z,19.95
2018-03-30T05:57:28.263Z,15.93
2018-03-30T05:59:55.985Z,21.45
2018-03-30T06:02:23.618Z,18.62
2018-03-30T06:04:51.268Z,17.95
2018-03-30T06:07:18.881Z,15.95
2018-03-30T06:09:46.660Z,17.62
2018-03-30T06:12:14.246Z,17.67
2018-03-30T06:14:42.697Z,16.30
2018-03-30T06:17:10.315Z,18.45
2018-03-30T06:19:37.912Z,15.07
2018-03-30T06:22:05.642Z,19.77
2018-03-30T06:24:34.056Z,14.87
2018-03-30T06:27:01.762Z,18.33
2018-03-30T06:29:30.319Z,19.00
2018-03-30T06:31:57.970Z,14.57
2018-03-30T06:34:25.706Z,17.77
2018-03-30T06:36:53.291Z,16.40
2018-03-30T06:39:21.750Z,16.40
2018-03-30T06:41:50.290Z,17.95
2018-03-30T06:44:18.700Z,17.15
2018-03-30T06:46:46.611Z,14.93
2018-03-30T06:49:14.256Z,17.77
2018-03-30T06:51:41.927Z,18.45
2018-03-30T06:54:09.727Z,16.90
2018-03-30T06:56:38.149Z,19.05
2018-03-30T06:59:05.771Z,17.55
2018-03-30T07:01:33.411Z,15.43
2018-03-30T07:04:01.868Z,14.95
2018-03-30T07:06:29.764Z,17.83
2018-03-30T07:08:57.402Z,15.85
2018-03-30T07:11:25.221Z,18.52
2018-03-30T07:13:52.880Z,17.73
2018-03-30T07:16:20.517Z,17.87
2018-03-30T07:18:48.978Z,16.65
2018-03-30T07:21:16.577Z,14.45
2018-03-30T07:23:44.188Z,16.15
2018-03-30T07:26:11.897Z,17.33
2018-03-30T07:28:40.483Z,17.42
2018-03-30T07:31:14.708Z,17.58
2018-03-30T07:33:43.303Z,16.35
2018-03-30T07:36:10.910Z,19.42
2018-03-30T07:38:38.574Z,14.63
2018-03-30T07:41:06.996Z,14.23
2018-03-30T07:43:34.687Z,14.15
2018-03-30T07:46:02.304Z,16.70
2018-03-30T07:48:29.999Z,12.60
2018-03-30T07:50:57.623Z,15.88
2018-03-30T07:53:26.028Z,14.23
2018-03-30T07:55:53.813Z,11.52
2018-03-30T07:58:21.593Z,11.25
2018-03-30T08:00:49.254Z,12.75
2018-03-30T08:03:16.877Z,13.45
2018-03-30T08:05:46.261Z,14.38
2018-03-30T08:08:14.701Z,13.43
2018-03-30T08:10:42.583Z,15.85
2018-03-30T08:13:10.245Z,9.45
2018-03-30T08:15:37.821Z,14.85
2018-03-30T08:18:05.482Z,14.87
2018-03-30T08:20:33.156Z,12.15
2018-03-30T08:23:00.797Z,13.20
2018-03-30T08:25:28.502Z,13.60
2018-03-30T08:27:56.166Z,14.13
2018-03-30T08:30:23.988Z,13.75
2018-03-30T08:32:52.598Z,13.32
2018-03-30T08:35:21.005Z,10.10
2018-03-30T08:37:48.607Z,13.55
2018-03-30T08:40:16.454Z,13.35
2018-03-30T08:42:44.064Z,10.60
2018-03-30T08:45:12.465Z,13.55
2018-03-30T08:47:40.107Z,12.88
2018-03-30T08:50:07.891Z,10.23
2018-03-30T08:52:35.656Z,10.32
2018-03-30T08:55:04.054Z,17.17
2018-03-30T08:57:31.635Z,13.88
2018-03-30T08:59:59.262Z,13.60
2018-03-30T09:02:26.860Z,11.80
2018-03-30T09:04:54.523Z,12.57
2018-03-30T09:07:22.178Z,12.30
2018-03-30T09:09:49.834Z,16.23
2018-03-30T09:12:17.473Z,17.27
2018-03-30T09:14:45.245Z,12.15
2018-03-30T09:17:12.836Z,15.70
2018-03-30T09:19:40.490Z,13.62
2018-03-30T09:22:08.172Z,13.55
2018-03-30T09:24:36.063Z,12.02
2018-03-30T09:27:04.489Z,10.68
2018-03-30T09:29:32.856Z,11.50
2018-03-30T09:32:00.440Z,14.63
2018-03-30T09:34:28.826Z,10.20
2018-03-30T09:36:56.599Z,12.50
2018-03-30T09:39:25.019Z,10.40
2018-03-30T09:41:52.622Z,13.60
2018-03-30T09:44:20.243Z,8.05
2018-03-30T09:46:48.579Z,9.73
2018-03-30T09:49:16.223Z,27.23
2018-03-30T09:51:43.810Z,11.75
2018-03-30T09:54:11.442Z,7.20
2018-03-30T09:56:39.035Z,7.85
2018-03-30T09:59:06.668Z,8.93
2018-03-30T10:01:34.310Z,7.60
2018-03-30T10:04:02.024Z,6.90
2018-03-30T10:06:35.423Z,7.25
2018-03-30T10:09:03.058Z,7.07
2018-03-30T10:11:30.771Z,8.55
2018-03-30T10:16:32.808Z,7.62
2018-03-30T10:19:00.420Z,6.95
2018-03-30T10:21:28.069Z,9.18
2018-03-30T10:23:55.722Z,7.03
2018-03-30T10:26:23.925Z,6.50
2018-03-30T10:28:51.542Z,6.65
2018-03-30T10:31:19.249Z,6.15
2018-03-30T10:33:46.859Z,5.82
2018-03-30T10:36:14.477Z,6.20
2018-03-30T10:38:42.155Z,6.12
2018-03-30T10:41:09.791Z,6.30
2018-03-30T10:43:37.456Z,5.62
2018-03-30T10:46:05.054Z,10.82
2018-03-30T10:48:32.861Z,7.65
2018-03-30T10:51:00.517Z,7.78
2018-03-30T10:53:28.122Z,5.32
2018-03-30T10:55:55.714Z,6.87
2018-03-30T10:58:23.404Z,5.50
2018-03-30T11:00:51.790Z,6.00
2018-03-30T11:03:20.188Z,5.45
2018-03-30T11:05:48.505Z,3.25
2018-03-30T11:08:16.709Z,3.37
2018-03-30T11:10:44.339Z,9.15
2018-03-30T11:13:12.042Z,3.67
2018-03-30T11:15:39.671Z,4.60
2018-03-30T11:18:07.398Z,2.47
2018-03-30T11:20:35.287Z,2.95
2018-03-30T11:23:02.878Z,3.60
2018-03-30T11:25:30.522Z,4.00
2018-03-30T11:27:58.246Z,7.85
2018-03-30T11:30:25.991Z,2.62
2018-03-30T11:32:54.465Z,3.58
2018-03-30T11:35:22.215Z,4.57
2018-03-30T11:37:49.832Z,5.53
2018-03-30T11:40:17.587Z,2.15
2018-03-30T11:42:45.282Z,2.47
2018-03-30T11:45:13.067Z,1.92
2018-03-30T11:47:40.729Z,2.37
2018-03-30T11:50:09.188Z,2.42
2018-03-30T11:52:36.930Z,2.53
2018-03-30T11:55:04.684Z,2.35
2018-03-30T11:57:32.422Z,3.12
2018-03-30T12:00:01.034Z,2.55
2018-03-30T12:02:28.705Z,3.78
2018-03-30T12:04:56.385Z,3.20
2018-03-30T12:07:24.227Z,2.70
2018-03-30T12:09:52.144Z,3.08
2018-03-30T12:12:19.827Z,3.85
2018-03-30T12:14:48.281Z,3.78
2018-03-30T12:17:15.941Z,3.60
2018-03-30T12:19:43.836Z,4.20
2018-03-30T12:22:12.424Z,3.05
2018-03-30T12:24:40.121Z,4.05
2018-03-30T12:27:07.793Z,4.60
2018-03-30T12:29:35.484Z,4.10
2018-03-30T12:32:03.171Z,5.00
2018-03-30T12:34:30.932Z,5.30
2018-03-30T12:36:59.346Z,4.40
2018-03-30T12:39:27.062Z,4.78
2018-03-30T12:41:54.807Z,5.85
2018-03-30T12:44:22.867Z,4.60
2018-03-30T12:46:50.544Z,4.03
2018-03-30T12:49:18.231Z,3.87
2018-03-30T12:51:45.866Z,3.33
2018-03-30T12:54:13.647Z,4.85
2018-03-30T12:56:41.396Z,7.45
2018-03-30T12:59:09.153Z,5.83
2018-03-30T13:01:37.454Z,4.03
2018-03-30T13:04:05.303Z,4.20
2018-03-30T13:06:33.083Z,7.60
2018-03-30T13:09:00.738Z,6.20
2018-03-30T13:11:28.381Z,8.45
2018-03-30T13:13:56.030Z,8.32
2018-03-30T13:16:24.026Z,7.10
2018-03-30T13:18:51.727Z,4.43
2018-03-30T13:21:19.420Z,7.68
2018-03-30T13:23:47.058Z,5.72
2018-03-30T13:26:14.669Z,5.57
2018-03-30T13:28:42.493Z,5.30
2018-03-30T13:31:10.222Z,8.90
2018-03-30T13:33:37.897Z,8.70
2018-03-30T13:36:06.310Z,7.03
2018-03-30T13:38:33.992Z,6.60
2018-03-30T13:41:01.684Z,5.90
2018-03-30T13:43:30.948Z,6.00
2018-03-30T13:45:58.718Z,5.77
2018-03-30T13:48:26.432Z,5.47
2018-03-30T13:51:03.048Z,9.47
2018-03-30T13:53:33.464Z,7.60
2018-03-30T13:56:04.914Z,5.90
2018-03-30T13:58:38.322Z,7.90
2018-03-30T14:01:20.278Z,7.90
2018-03-30T14:03:53.447Z,6.32
2018-03-30T14:06:24.954Z,9.97
2018-03-30T14:09:01.540Z,8.00
2018-03-30T14:11:31.929Z,6.00
2018-03-30T14:14:00.368Z,6.25
2018-03-30T14:16:28.025Z,6.13
2018-03-30T14:18:57.559Z,7.30
2018-03-30T14:21:25.229Z,10.00
2018-03-30T14:23:54.580Z,6.77
2018-03-30T14:26:36.192Z,8.13
2018-03-30T14:29:04.753Z,8.00
2018-03-30T14:31:36.238Z,6.53
2018-03-30T14:34:06.727Z,6.83
2018-03-30T14:36:43.485Z,6.37
2018-03-30T14:39:34.082Z,8.80
2018-03-30T14:42:01.718Z,7.40
2018-03-30T14:44:49.692Z,7.03
2018-03-30T14:47:29.887Z,5.90
2018-03-30T14:50:03.147Z,6.63
2018-03-30T14:52:34.375Z,6.00
2018-03-30T14:55:04.950Z,7.57
2018-03-30T14:57:35.118Z,7.43
2018-03-30T15:13:33.987Z,7.63
2018-03-30T15:16:19.326Z,7.40
2018-03-30T15:18:52.511Z,8.00
2018-03-30T15:24:34.750Z,6.90
2018-03-30T15:27:17.251Z,8.13
2018-03-30T15:29:54.875Z,8.52
2018-03-30T15:35:32.673Z,7.17
2018-03-30T15:38:00.353Z,6.80
2018-03-30T15:40:29.684Z,10.30
2018-03-30T15:43:00.984Z,9.90
2018-03-30T15:45:45.309Z,9.40
2018-03-30T15:48:12.945Z,6.80
2018-03-30T15:50:41.433Z,8.30
2018-03-30T15:53:17.801Z,13.18
2018-03-30T15:55:46.460Z,8.43
2018-03-30T15:58:15.555Z,20.17
2018-03-30T16:00:43.554Z,9.40
2018-03-30T16:03:11.936Z,8.55
2018-03-30T16:05:39.708Z,10.23
2018-03-30T16:08:07.318Z,8.13
2018-03-30T16:10:37.826Z,9.57
2018-03-30T16:13:05.455Z,6.87
2018-03-30T16:15:33.145Z,9.45
2018-03-30T16:18:00.743Z,8.45
2018-03-30T16:20:27.859Z,7.12
2018-03-30T16:22:55.253Z,6.43
2018-03-30T16:25:22.452Z,6.57
2018-03-30T16:27:49.548Z,6.40
2018-03-30T16:30:16.692Z,10.55
2018-03-30T16:32:43.900Z,9.30
2018-03-30T16:35:11.128Z,7.65
2018-03-30T16:37:38.261Z,10.95
2018-03-30T16:40:05.440Z,7.78
2018-03-30T16:42:33.331Z,10.30
2018-03-30T16:45:00.546Z,7.78
2018-03-30T16:47:27.864Z,7.43
2018-03-30T16:49:54.992Z,8.98
2018-03-30T16:52:22.128Z,8.60
2018-03-30T16:54:49.462Z,8.52
2018-03-30T16:57:16.575Z,14.48
2018-03-30T16:59:43.740Z,11.15
2018-03-30T17:02:11.208Z,10.50
2018-03-30T17:04:38.635Z,7.87
2018-03-30T17:07:07.003Z,18.10
2018-03-30T17:09:35.361Z,15.23
2018-03-30T17:12:02.558Z,8.52
2018-03-30T17:14:29.939Z,10.93
2018-03-30T17:16:57.125Z,13.30
2018-03-30T17:19:24.395Z,13.40
2018-03-30T17:21:51.679Z,12.07
2018-03-30T17:24:19.690Z,11.30
2018-03-30T17:26:46.926Z,10.70
2018-03-30T17:29:14.052Z,10.40
2018-03-30T17:31:41.271Z,18.10
2018-03-30T17:34:08.452Z,10.15
2018-03-30T17:36:36.064Z,9.63
2018-03-30T17:39:03.338Z,9.95
2018-03-30T17:41:31.481Z,8.40
2018-03-30T17:43:59.781Z,12.60
2018-03-30T17:46:27.073Z,9.85
2018-03-30T17:48:54.236Z,11.43
2018-03-30T17:51:21.365Z,12.27
2018-03-30T17:53:48.559Z,10.70
2018-03-30T17:56:15.676Z,10.95
2018-03-30T17:58:43.894Z,13.00
2018-03-30T18:01:12.020Z,9.88
2018-03-30T18:03:40.377Z,8.98
2018-03-30T18:06:07.731Z,10.18
2018-03-30T18:08:38.135Z,11.05
2018-03-30T18:11:05.594Z,8.38
2018-03-30T18:16:06.352Z,12.52
2018-03-30T18:18:33.615Z,9.93
2018-03-30T18:21:00.781Z,7.12
2018-03-30T18:23:27.957Z,8.60
2018-03-30T18:25:55.878Z,8.90
2018-03-30T18:28:23.074Z,8.35
2018-03-30T18:30:51.209Z,10.13
2018-03-30T18:33:18.458Z,9.40
2018-03-30T18:35:45.648Z,7.30
2018-03-30T18:38:12.979Z,8.32
2018-03-30T18:40:40.143Z,7.82
2018-03-30T18:43:07.348Z,9.40
2018-03-30T18:45:34.469Z,8.25
2018-03-30T18:48:01.683Z,7.22
2018-03-30T18:50:28.829Z,15.05
2018-03-30T18:52:55.974Z,6.82
2018-03-30T18:55:23.130Z,8.73
2018-03-30T18:57:50.318Z,19.45
2018-03-30T19:00:18.342Z,11.98
2018-03-30T19:02:45.447Z,7.72
2018-03-30T19:05:12.555Z,7.60
2018-03-30T19:07:39.659Z,6.90
2018-03-30T19:10:06.773Z,9.18
2018-03-30T19:12:34.694Z,8.32
2018-03-30T19:15:01.949Z,7.28
2018-03-30T19:17:29.112Z,7.18
2018-03-30T19:19:56.255Z,7.85
2018-03-30T19:22:23.385Z,10.50
2018-03-30T19:24:50.687Z,10.57
2018-03-30T19:27:17.836Z,7.12
2018-03-30T19:29:45.005Z,7.68
2018-03-30T19:32:12.437Z,5.32
2018-03-30T19:34:39.546Z,5.85
2018-03-30T19:37:06.736Z,5.85
2018-03-30T19:39:33.945Z,8.63
2018-03-30T19:42:01.098Z,9.35
2018-03-30T19:44:28.277Z,6.68
2018-03-30T19:46:55.414Z,6.65
2018-03-30T19:49:22.645Z,8.20
2018-03-30T19:51:49.780Z,8.13
2018-03-30T19:54:16.935Z,6.62
2018-03-30T19:56:44.137Z,7.80
2018-03-30T19:59:11.292Z,7.60
2018-03-30T20:01:38.409Z,7.18
2018-03-30T20:04:05.593Z,7.90
2018-03-30T20:06:32.831Z,14.07
2018-03-30T20:09:00.017Z,7.40
2018-03-30T20:11:28.017Z,8.40
2018-03-30T20:13:55.867Z,8.68
2018-03-30T20:16:23.734Z,11.45
2018-03-30T20:18:50.903Z,9.05
2018-03-30T20:21:18.041Z,10.23
2018-03-30T20:23:45.985Z,14.35
2018-03-30T20:26:13.934Z,11.77
2018-03-30T20:28:41.888Z,11.23
2018-03-30T20:31:09.020Z,9.98
2018-03-30T20:33:36.112Z,9.35
2018-03-30T20:36:03.224Z,12.37
2018-03-30T20:38:30.415Z,15.27
2018-03-30T20:40:57.566Z,13.00
2018-03-30T20:43:24.711Z,13.05
2018-03-30T20:45:51.961Z,14.32
2018-03-30T20:48:19.148Z,12.90
2018-03-30T20:50:47.005Z,18.83
2018-03-30T20:53:14.140Z,13.32
2018-03-30T20:55:41.264Z,12.15
2018-03-30T20:58:08.420Z,13.30
2018-03-30T21:00:35.505Z,12.48
2018-03-30T21:03:02.614Z,10.55
2018-03-30T21:05:30.530Z,13.35
2018-03-30T21:07:57.711Z,13.50
2018-03-30T21:10:24.903Z,14.10
2018-03-30T21:12:51.996Z,14.02
2018-03-30T21:15:19.131Z,17.55
2018-03-30T21:17:46.357Z,14.60
2018-03-30T21:20:13.609Z,12.68
2018-03-30T21:22:40.785Z,14.75
2018-03-30T21:25:07.938Z,14.93
2018-03-30T21:27:35.920Z,14.10
2018-03-30T21:30:03.234Z,14.57
2018-03-30T21:32:30.330Z,14.63
2018-03-30T21:34:58.245Z,16.90
2018-03-30T21:37:26.167Z,18.10
2018-03-30T21:39:53.286Z,15.40
2018-03-30T21:42:20.432Z,18.50
2018-03-30T21:44:48.302Z,15.95
2018-03-30T21:47:16.156Z,19.92
2018-03-30T21:49:43.282Z,18.55
2018-03-30T21:52:11.166Z,17.90
2018-03-30T21:54:38.954Z,16.67
2018-03-30T21:57:06.065Z,15.95
2018-03-30T21:59:33.236Z,16.20
2018-03-30T22:02:00.359Z,15.32
2018-03-30T22:04:27.528Z,19.00
2018-03-30T22:06:54.627Z,17.12
2018-03-30T22:09:22.516Z,19.00
2018-03-30T22:11:49.618Z,20.48
2018-03-30T22:14:18.373Z,16.58
2018-03-30T22:16:45.478Z,16.92
2018-03-30T22:19:12.632Z,18.95
2018-03-30T22:21:39.844Z,18.15
2018-03-30T22:24:06.992Z,21.83
2018-03-30T22:26:34.095Z,22.13
2018-03-30T22:29:01.255Z,19.70
2018-03-30T22:31:28.391Z,23.02
2018-03-30T22:33:55.507Z,22.42
2018-03-30T22:36:22.585Z,19.98
2018-03-30T22:38:50.128Z,20.10
2018-03-30T22:41:18.020Z,18.02
2018-03-30T22:43:45.165Z,22.45
2018-03-30T22:46:12.298Z,20.20
2018-03-30T22:48:39.431Z,18.70
2018-03-30T22:51:06.674Z,19.52
2018-03-30T22:53:33.763Z,18.62
2018-03-30T22:56:00.919Z,19.60
2018-03-30T22:58:28.081Z,17.42
2018-03-30T23:00:55.221Z,17.20
2018-03-30T23:03:22.364Z,16.60
2018-03-30T23:05:49.453Z,20.08
2018-03-30T23:08:16.602Z,19.33
2018-03-30T23:10:43.717Z,22.48
2018-03-30T23:13:10.834Z,25.55
2018-03-30T23:15:37.956Z,22.37
2018-03-30T23:18:05.995Z,29.10
2018-03-30T23:20:33.109Z,21.67
2018-03-30T23:23:00.183Z,28.38
2018-03-30T23:25:27.301Z,25.95
2018-03-30T23:27:54.406Z,25.50
2018-03-30T23:30:21.862Z,20.33
2018-03-30T23:32:49.224Z,19.77
2018-03-30T23:35:16.359Z,26.20
2018-03-30T23:37:43.480Z,21.33
2018-03-30T23:40:11.386Z,22.05
2018-03-30T23:42:38.455Z,23.38
2018-03-30T23:45:05.635Z,21.60
2018-03-30T23:47:33.541Z,24.08
2018-03-30T23:50:00.693Z,21.52
2018-03-30T23:55:01.338Z,23.73
2018-03-30T23:57:28.412Z,19.30
2018-03-30T23:59:55.524Z,16.45
